createdAt,value
2022-10-01T00:02:08.124Z,100356.33
2022-10-01T00:04:37.793Z,100357.64
2022-10-01T00:07:10.365Z,100357.76
2022-10-01T00:09:38.576Z,100358.95
2022-10-01T00:12:07.394Z,100358.18
2022-10-01T00:14:39.024Z,100358.39
2022-10-01T00:17:06.761Z,100359.17
2022-10-01T00:19:34.472Z,100359.20
2022-10-01T00:22:02.600Z,100359.71
2022-10-01T00:24:30.307Z,100355.31
2022-10-01T00:26:57.993Z,100354.88
2022-10-01T00:29:25.720Z,100357.27
2022-10-01T00:31:53.513Z,100354.64
2022-10-01T00:34:21.298Z,100353.84
2022-10-01T00:36:49.326Z,100349.73
2022-10-01T00:39:17.030Z,100347.84
2022-10-01T00:41:44.847Z,100345.54
2022-10-01T00:44:35.404Z,100344.17
2022-10-01T00:47:20.064Z,100347.37
2022-10-01T00:49:50.628Z,100348.95
2022-10-01T00:52:24.747Z,100350.05
2022-10-01T00:55:04.039Z,100352.94
2022-10-01T00:57:33.307Z,100354.17
2022-10-01T01:00:05.950Z,100352.09
2022-10-01T01:02:33.785Z,100353.41
2022-10-01T01:05:02.139Z,100350.34
2022-10-01T01:07:32.579Z,100349.64
2022-10-01T01:10:01.886Z,100350.06
2022-10-01T01:12:59.905Z,100349.10
2022-10-01T01:15:46.495Z,100352.45
2022-10-01T01:18:40.300Z,100353.67
2022-10-01T01:21:55.145Z,100350.80
2022-10-01T01:24:51.732Z,100350.06
2022-10-01T01:27:40.922Z,100349.56
2022-10-01T01:30:12.233Z,100347.71
2022-10-01T01:33:05.938Z,100342.11
2022-10-01T01:35:44.128Z,100340.85
2022-10-01T01:38:20.361Z,100336.98
2022-10-01T01:40:52.296Z,100333.95
2022-10-01T01:43:31.205Z,100330.45
2022-10-01T01:46:01.242Z,100329.89
2022-10-01T01:48:31.986Z,100333.64
2022-10-01T01:51:12.705Z,100328.06
2022-10-01T01:53:41.036Z,100329.13
2022-10-01T01:56:09.623Z,100325.70
2022-10-01T01:58:39.252Z,100323.94
2022-10-01T02:01:07.165Z,100324.41
2022-10-01T02:03:35.428Z,100320.94
2022-10-01T02:06:28.002Z,100318.36
2022-10-01T02:09:19.738Z,100312.22
2022-10-01T02:13:01.931Z,100311.32
2022-10-01T02:16:04.373Z,100308.33
2022-10-01T02:19:00.554Z,100298.10
2022-10-01T02:21:57.180Z,100308.05
2022-10-01T02:24:43.330Z,100300.46
2022-10-01T02:27:25.701Z,100296.30
2022-10-01T02:29:57.274Z,100295.02
2022-10-01T02:32:26.853Z,100297.83
2022-10-01T02:34:54.961Z,100297.81
2022-10-01T02:37:26.005Z,100298.62
2022-10-01T02:39:57.467Z,100291.67
2022-10-01T02:42:29.026Z,100288.59
2022-10-01T02:45:02.425Z,100288.59
2022-10-01T02:48:09.045Z,100277.60
2022-10-01T02:50:53.418Z,100278.16
2022-10-01T02:53:40.766Z,100278.41
2022-10-01T02:56:10.253Z,100275.92
2022-10-01T02:58:37.972Z,100275.06
2022-10-01T03:01:06.242Z,100274.80
2022-10-01T03:03:33.991Z,100270.73
2022-10-01T03:06:01.720Z,100266.83
2022-10-01T03:08:29.418Z,100264.11
2022-10-01T03:10:57.153Z,100266.33
2022-10-01T03:13:25.266Z,100264.54
2022-10-01T03:15:53.039Z,100264.89
2022-10-01T03:18:20.778Z,100263.55
2022-10-01T03:20:48.449Z,100261.58
2022-10-01T03:23:16.245Z,100259.30
2022-10-01T03:25:43.932Z,100258.12
2022-10-01T03:28:12.489Z,100253.91
2022-10-01T03:30:40.243Z,100255.00
2022-10-01T03:33:08.030Z,100255.26
2022-10-01T03:35:35.702Z,100249.52
2022-10-01T03:38:03.442Z,100255.13
2022-10-01T03:40:33.337Z,100249.31
2022-10-01T03:43:01.070Z,100247.89
2022-10-01T03:45:28.893Z,100246.25
2022-10-01T03:47:56.580Z,100245.66
2022-10-01T03:50:24.251Z,100245.36
2022-10-01T03:52:51.948Z,100240.00
2022-10-01T03:55:19.594Z,100236.23
2022-10-01T03:57:47.577Z,100236.11
2022-10-01T04:00:15.372Z,100235.53
2022-10-01T04:02:43.419Z,100235.74
2022-10-01T04:05:12.333Z,100237.02
2022-10-01T04:07:42.683Z,100235.34
2022-10-01T04:10:10.401Z,100235.71
2022-10-01T04:12:38.289Z,100232.64
2022-10-01T04:15:06.482Z,100233.04
2022-10-01T04:17:34.274Z,100231.00
2022-10-01T04:20:02.119Z,100230.57
2022-10-01T04:22:30.290Z,100227.36
2022-10-01T04:24:57.972Z,100234.61
2022-10-01T04:27:26.215Z,100231.42
2022-10-01T04:29:53.892Z,100234.00
2022-10-01T04:32:22.157Z,100229.48
2022-10-01T04:34:52.863Z,100232.16
2022-10-01T04:37:21.613Z,100232.58
2022-10-01T04:39:49.758Z,100234.00
2022-10-01T04:42:17.703Z,100239.09
2022-10-01T04:44:45.394Z,100247.91
2022-10-01T04:47:13.281Z,100244.13
2022-10-01T04:49:41.024Z,100244.02
2022-10-01T04:52:08.711Z,100245.98
2022-10-01T04:54:36.394Z,100247.55
2022-10-01T04:57:04.098Z,100246.14
2022-10-01T04:59:32.698Z,100246.08
2022-10-01T05:02:00.461Z,100246.95
2022-10-01T05:04:28.315Z,100249.41
2022-10-01T05:06:56.273Z,100246.95
2022-10-01T05:09:24.075Z,100249.93
2022-10-01T05:11:52.123Z,100252.59
2022-10-01T05:14:22.779Z,100248.58
2022-10-01T05:16:50.618Z,100249.14
2022-10-01T05:19:18.487Z,100252.20
2022-10-01T05:21:46.377Z,100247.52
2022-10-01T05:24:15.215Z,100244.58
2022-10-01T05:26:42.924Z,100242.10
2022-10-01T05:29:11.345Z,100239.13
2022-10-01T05:31:42.000Z,100236.72
2022-10-01T05:34:10.588Z,100236.71
2022-10-01T05:36:38.434Z,100239.14
2022-10-01T05:39:06.084Z,100233.11
2022-10-01T05:41:34.056Z,100232.83
2022-10-01T05:44:02.934Z,100232.89
2022-10-01T05:46:31.925Z,100231.80
2022-10-01T05:48:59.624Z,100232.48
2022-10-01T05:51:27.657Z,100227.34
2022-10-01T05:53:59.005Z,100227.90
2022-10-01T05:56:26.748Z,100221.65
2022-10-01T05:58:55.056Z,100219.23
2022-10-01T06:01:22.776Z,100218.70
2022-10-01T06:03:52.341Z,100212.84
2022-10-01T06:06:27.373Z,100214.02
2022-10-01T06:08:55.156Z,100215.27
2022-10-01T06:11:24.117Z,100212.55
2022-10-01T06:13:52.535Z,100210.73
2022-10-01T06:16:20.968Z,100215.05
2022-10-01T06:18:49.486Z,100208.20
2022-10-01T06:21:17.219Z,100213.14
2022-10-01T06:23:45.738Z,100213.38
2022-10-01T06:26:13.481Z,100211.26
2022-10-01T06:28:41.261Z,100210.38
2022-10-01T06:31:08.928Z,100206.19
2022-10-01T06:33:37.137Z,100201.30
2022-10-01T06:36:05.183Z,100202.39
2022-10-01T06:38:33.137Z,100201.55
2022-10-01T06:41:02.404Z,100197.99
2022-10-01T06:43:31.715Z,100194.24
2022-10-01T06:46:04.699Z,100193.75
2022-10-01T06:48:32.808Z,100191.81
2022-10-01T06:51:00.549Z,100190.02
2022-10-01T06:53:29.030Z,100185.55
2022-10-01T06:55:57.136Z,100186.45
2022-10-01T06:58:28.306Z,100183.10
2022-10-01T07:01:02.042Z,100178.81
2022-10-01T07:03:31.428Z,100174.60
2022-10-01T07:06:05.543Z,100169.81
2022-10-01T07:08:33.523Z,100165.11
2022-10-01T07:11:02.953Z,100167.07
2022-10-01T07:13:30.988Z,100162.64
2022-10-01T07:15:58.715Z,100159.88
2022-10-01T07:18:26.986Z,100153.92
2022-10-01T07:20:59.473Z,100150.80
2022-10-01T07:23:27.196Z,100150.33
2022-10-01T07:25:55.178Z,100150.80
2022-10-01T07:28:25.761Z,100151.78
2022-10-01T07:31:02.091Z,100147.57
2022-10-01T07:33:29.979Z,100144.48
2022-10-01T07:36:04.210Z,100143.68
2022-10-01T07:38:33.606Z,100139.70
2022-10-01T07:41:03.286Z,100132.40
2022-10-01T07:43:33.215Z,100138.17
2022-10-01T07:46:01.961Z,100134.45
2022-10-01T07:48:30.961Z,100132.98
2022-10-01T07:50:58.652Z,100128.48
2022-10-01T07:53:27.457Z,100132.42
2022-10-01T07:55:55.446Z,100126.48
2022-10-01T07:58:24.288Z,100124.66
2022-10-01T08:00:56.111Z,100126.03
2022-10-01T08:03:25.452Z,100119.93
2022-10-01T08:05:53.618Z,100118.17
2022-10-01T08:08:21.539Z,100110.55
2022-10-01T08:10:50.635Z,100104.09
2022-10-01T08:13:18.933Z,100098.70
2022-10-01T08:15:53.555Z,100095.90
2022-10-01T08:18:23.558Z,100093.60
2022-10-01T08:20:52.423Z,100090.40
2022-10-01T08:23:21.385Z,100086.31
2022-10-01T08:25:49.159Z,100081.09
2022-10-01T08:28:17.212Z,100074.79
2022-10-01T08:30:45.163Z,100073.94
2022-10-01T08:33:14.535Z,100071.00
2022-10-01T08:35:43.710Z,100061.05
2022-10-01T08:38:12.969Z,100055.14
2022-10-01T08:40:46.466Z,100056.44
2022-10-01T08:43:38.664Z,100052.15
2022-10-01T08:46:17.906Z,100051.39
2022-10-01T08:49:31.781Z,100052.51
2022-10-01T08:52:13.238Z,100052.21
2022-10-01T08:54:56.896Z,100044.30
2022-10-01T08:57:31.258Z,100043.43
2022-10-01T09:00:04.066Z,100035.02
2022-10-01T09:02:37.984Z,100041.95
2022-10-01T09:05:24.845Z,100036.36
2022-10-01T09:08:43.715Z,100029.15
2022-10-01T09:11:44.752Z,100017.60
2022-10-01T09:14:54.886Z,100013.55
2022-10-01T09:17:49.069Z,100012.78
2022-10-01T09:20:32.856Z,100006.77
2022-10-01T09:23:30.047Z,100001.51
2022-10-01T09:25:59.994Z,99996.77
2022-10-01T09:28:35.517Z,99984.02
2022-10-01T09:31:06.481Z,99991.40
2022-10-01T09:33:43.136Z,99988.91
2022-10-01T09:36:45.044Z,99985.93
2022-10-01T09:39:34.889Z,99980.44
2022-10-01T09:42:03.583Z,99979.27
2022-10-01T09:44:33.805Z,99979.71
2022-10-01T09:47:01.621Z,99976.17
2022-10-01T09:49:45.870Z,99975.23
2022-10-01T09:52:39.683Z,99974.67
2022-10-01T09:55:36.605Z,99976.52
2022-10-01T09:58:20.801Z,99974.23
2022-10-01T10:00:51.542Z,99970.63
2022-10-01T10:03:27.308Z,99964.16
2022-10-01T10:05:55.615Z,99959.10
2022-10-01T10:08:31.815Z,99955.77
2022-10-01T10:11:11.727Z,99952.92
2022-10-01T10:13:42.428Z,99949.80
2022-10-01T10:16:26.452Z,99945.95
2022-10-01T10:19:02.263Z,99935.10
2022-10-01T10:21:34.883Z,99939.10
2022-10-01T10:24:06.498Z,99934.17
2022-10-01T10:26:39.359Z,99929.90
2022-10-01T10:29:24.962Z,99923.65
2022-10-01T10:31:55.517Z,99917.62
2022-10-01T10:34:41.054Z,99918.48
2022-10-01T10:37:20.137Z,99920.28
2022-10-01T10:39:52.311Z,99910.83
2022-10-01T10:42:22.660Z,99902.83
2022-10-01T10:44:54.877Z,99899.21
2022-10-01T10:47:24.340Z,99894.21
2022-10-01T10:49:57.785Z,99891.98
2022-10-01T10:52:36.078Z,99891.34
2022-10-01T10:55:21.553Z,99888.54
2022-10-01T10:57:49.325Z,99886.02
2022-10-01T11:00:21.532Z,99887.94
2022-10-01T11:03:06.174Z,99884.58
2022-10-01T11:05:41.662Z,99877.58
2022-10-01T11:08:20.534Z,99873.36
2022-10-01T11:11:13.829Z,99874.72
2022-10-01T11:14:08.368Z,99873.14
2022-10-01T11:17:05.856Z,99867.15
2022-10-01T11:20:20.790Z,99867.29
2022-10-01T11:23:36.625Z,99860.09
2022-10-01T11:26:26.972Z,99847.16
2022-10-01T11:29:29.686Z,99839.41
2022-10-01T11:32:25.032Z,99833.65
2022-10-01T11:35:18.728Z,99834.42
2022-10-01T11:38:23.403Z,99831.79
2022-10-01T11:40:57.983Z,99827.97
2022-10-01T11:43:39.001Z,99823.23
2022-10-01T11:46:32.822Z,99819.14
2022-10-01T11:49:27.933Z,99812.59
2022-10-01T11:52:27.516Z,99810.65
2022-10-01T11:55:40.432Z,99809.48
2022-10-01T11:58:54.697Z,99802.04
2022-10-01T12:01:49.266Z,99796.73
2022-10-01T12:05:08.841Z,99787.96
2022-10-01T12:07:54.082Z,99786.86
2022-10-01T12:10:47.774Z,99787.02
2022-10-01T12:13:15.895Z,99784.58
2022-10-01T12:15:58.004Z,99782.50
2022-10-01T12:18:36.747Z,99776.77
2022-10-01T12:21:18.471Z,99779.17
2022-10-01T12:23:58.092Z,99772.94
2022-10-01T12:27:07.731Z,99769.28
2022-10-01T12:29:52.624Z,99759.88
2022-10-01T12:32:48.595Z,99754.00
2022-10-01T12:35:47.468Z,99748.25
2022-10-01T12:38:40.748Z,99745.12
2022-10-01T12:41:44.699Z,99747.85
2022-10-01T12:44:26.565Z,99747.60
2022-10-01T12:47:39.536Z,99741.36
2022-10-01T12:50:19.638Z,99735.42
2022-10-01T12:53:05.540Z,99730.48
2022-10-01T12:55:52.347Z,99732.67
2022-10-01T12:58:54.590Z,99729.25
2022-10-01T13:01:56.933Z,99721.99
2022-10-01T13:04:56.734Z,99715.92
2022-10-01T13:08:02.516Z,99713.02
2022-10-01T13:11:09.062Z,99706.77
2022-10-01T13:13:38.652Z,99703.84
2022-10-01T13:16:32.307Z,99702.77
2022-10-01T13:19:20.481Z,99703.04
2022-10-01T13:22:18.578Z,99695.69
2022-10-01T13:25:19.432Z,99694.54
2022-10-01T13:28:03.533Z,99687.92
2022-10-01T13:30:49.463Z,99685.75
2022-10-01T13:33:25.387Z,99680.89
2022-10-01T13:36:02.162Z,99675.31
2022-10-01T13:38:47.531Z,99673.31
2022-10-01T13:41:25.587Z,99668.42
2022-10-01T13:44:04.226Z,99668.17
2022-10-01T13:46:47.545Z,99666.73
2022-10-01T13:49:22.261Z,99664.31
2022-10-01T13:51:52.574Z,99658.77
2022-10-01T13:54:39.773Z,99652.66
2022-10-01T13:57:36.220Z,99645.77
2022-10-01T14:00:23.376Z,99642.99
2022-10-01T14:03:42.105Z,99639.92
2022-10-01T14:06:35.252Z,99639.89
2022-10-01T14:09:35.337Z,99640.62
2022-10-01T14:12:40.904Z,99644.16
2022-10-01T14:15:57.796Z,99640.84
2022-10-01T14:18:42.742Z,99645.69
2022-10-01T14:21:49.762Z,99649.81
2022-10-01T14:24:49.170Z,99650.20
2022-10-01T14:27:47.495Z,99646.79
2022-10-01T14:30:23.476Z,99644.50
2022-10-01T14:33:43.140Z,99648.22
2022-10-01T14:36:40.947Z,99661.07
2022-10-01T14:39:25.877Z,99669.48
2022-10-01T14:41:56.463Z,99679.96
2022-10-01T14:44:28.908Z,99682.63
2022-10-01T14:46:59.693Z,99685.19
2022-10-01T14:49:31.971Z,99685.63
2022-10-01T14:52:17.553Z,99685.71
2022-10-01T14:55:08.106Z,99688.55
2022-10-01T14:57:43.913Z,99684.73
2022-10-01T15:00:22.617Z,99682.33
2022-10-01T15:03:15.205Z,99677.33
2022-10-01T15:05:46.277Z,99674.50
2022-10-01T15:08:33.091Z,99677.16
2022-10-01T15:11:08.073Z,99675.08
2022-10-01T15:13:40.116Z,99675.20
2022-10-01T15:16:17.917Z,99674.38
2022-10-01T15:18:53.480Z,99676.05
2022-10-01T15:21:30.926Z,99671.71
2022-10-01T15:23:59.463Z,99667.89
2022-10-01T15:26:28.146Z,99667.57
2022-10-01T15:29:12.487Z,99665.20
2022-10-01T15:31:41.402Z,99665.80
2022-10-01T15:34:16.557Z,99663.02
2022-10-01T15:36:45.985Z,99664.64
2022-10-01T15:39:35.486Z,99661.34
2022-10-01T15:42:28.169Z,99658.73
2022-10-01T15:45:08.075Z,99659.89
2022-10-01T15:47:38.344Z,99657.43
2022-10-01T15:50:34.392Z,99654.63
2022-10-01T15:53:21.341Z,99657.11
2022-10-01T15:55:56.922Z,99657.44
2022-10-01T15:58:34.987Z,99650.51
2022-10-01T16:01:09.257Z,99644.96
2022-10-01T16:03:42.223Z,99647.83
2022-10-01T16:06:18.923Z,99644.16
2022-10-01T16:09:19.317Z,99639.75
2022-10-01T16:11:52.839Z,99640.31
2022-10-01T16:14:33.047Z,99633.25
2022-10-01T16:17:19.566Z,99632.06
2022-10-01T16:19:53.713Z,99635.63
2022-10-01T16:22:44.425Z,99635.52
2022-10-01T16:25:19.579Z,99636.33
2022-10-01T16:27:50.860Z,99636.36
2022-10-01T16:30:29.637Z,99636.27
2022-10-01T16:33:02.316Z,99630.05
2022-10-01T16:35:35.670Z,99635.66
2022-10-01T16:38:08.274Z,99632.33
2022-10-01T16:40:42.361Z,99630.56
2022-10-01T16:43:25.031Z,99628.02
2022-10-01T16:45:53.311Z,99628.84
2022-10-01T16:48:24.895Z,99628.45
2022-10-01T16:50:53.822Z,99630.77
2022-10-01T16:53:24.601Z,99625.23
2022-10-01T16:55:52.872Z,99625.24
2022-10-01T16:58:21.773Z,99626.55
2022-10-01T17:00:49.981Z,99627.56
2022-10-01T17:03:20.991Z,99625.75
2022-10-01T17:05:49.896Z,99622.52
2022-10-01T17:08:17.696Z,99626.13
2022-10-01T17:10:58.328Z,99623.17
2022-10-01T17:13:31.291Z,99621.33
2022-10-01T17:16:01.200Z,99628.38
2022-10-01T17:18:29.301Z,99627.39
2022-10-01T17:20:57.218Z,99627.40
2022-10-01T17:23:25.281Z,99626.48
2022-10-01T17:25:53.170Z,99628.66
2022-10-01T17:28:21.608Z,99633.91
2022-10-01T17:30:49.742Z,99639.67
2022-10-01T17:33:19.455Z,99640.95
2022-10-01T17:35:52.063Z,99641.71
2022-10-01T17:38:21.012Z,99640.82
2022-10-01T17:40:55.491Z,99641.18
2022-10-01T17:43:24.795Z,99638.46
2022-10-01T17:46:00.957Z,99636.85
2022-10-01T17:48:29.957Z,99632.98
2022-10-01T17:51:09.746Z,99638.36
2022-10-01T17:53:42.120Z,99639.83
2022-10-01T17:56:16.973Z,99639.48
2022-10-01T17:58:46.139Z,99645.36
2022-10-01T18:01:19.661Z,99648.36
2022-10-01T18:03:51.799Z,99647.92
2022-10-01T18:06:19.600Z,99651.71
2022-10-01T18:08:56.266Z,99655.96
2022-10-01T18:11:28.189Z,99653.49
2022-10-01T18:13:56.557Z,99655.14
2022-10-01T18:16:25.478Z,99659.50
2022-10-01T18:21:50.968Z,99654.56
2022-10-01T18:24:18.720Z,99655.98
2022-10-01T18:26:46.654Z,99657.03
2022-10-01T18:29:21.087Z,99659.85
2022-10-01T18:32:17.666Z,99664.84
2022-10-01T18:34:54.484Z,99660.36
2022-10-01T18:37:40.013Z,99659.14
2022-10-01T18:40:20.001Z,99658.35
2022-10-01T18:43:07.381Z,99659.08
2022-10-01T18:46:00.424Z,99656.98
2022-10-01T18:49:05.302Z,99661.70
2022-10-01T18:51:55.061Z,99662.83
2022-10-01T18:54:50.026Z,99657.33
2022-10-01T18:57:44.193Z,99652.80
2022-10-01T19:00:18.959Z,99651.33
2022-10-01T19:03:25.656Z,99650.49
2022-10-01T19:06:19.387Z,99653.98
2022-10-01T19:08:56.656Z,99653.16
2022-10-01T19:11:38.043Z,99653.81
2022-10-01T19:14:39.950Z,99654.48
2022-10-01T19:17:34.940Z,99658.21
2022-10-01T19:20:46.354Z,99662.95
2022-10-01T19:23:30.251Z,99663.27
2022-10-01T19:26:34.326Z,99660.86
2022-10-01T19:29:45.920Z,99673.83
2022-10-01T19:32:30.315Z,99667.16
2022-10-01T19:35:16.991Z,99667.09
2022-10-01T19:37:51.516Z,99674.11
2022-10-01T19:40:38.207Z,99676.52
2022-10-01T19:43:41.440Z,99674.27
2022-10-01T19:46:22.750Z,99672.27
2022-10-01T19:49:01.706Z,99676.66
2022-10-01T19:51:35.068Z,99679.16
2022-10-01T19:54:03.810Z,99683.55
2022-10-01T19:56:34.639Z,99686.00
2022-10-01T19:59:11.768Z,99688.58
2022-10-01T20:01:51.774Z,99688.54
2022-10-01T20:04:30.565Z,99688.30
2022-10-01T20:07:07.351Z,99687.27
2022-10-01T20:09:50.978Z,99686.70
2022-10-01T20:12:40.472Z,99687.47
2022-10-01T20:15:21.038Z,99690.23
2022-10-01T20:18:16.394Z,99690.66
2022-10-01T20:21:15.401Z,99691.04
2022-10-01T20:24:03.129Z,99690.73
2022-10-01T20:26:43.868Z,99695.70
2022-10-01T20:29:50.723Z,99700.00
2022-10-01T20:32:56.335Z,99700.20
2022-10-01T20:36:07.655Z,99705.41
2022-10-01T20:38:48.614Z,99709.98
2022-10-01T20:41:21.264Z,99710.80
2022-10-01T20:43:58.668Z,99710.23
2022-10-01T20:46:38.299Z,99716.31
2022-10-01T20:49:29.910Z,99714.46
2022-10-01T20:52:13.020Z,99716.31
2022-10-01T20:54:47.356Z,99717.30
2022-10-01T20:57:31.330Z,99715.86
2022-10-01T21:00:31.083Z,99714.31
2022-10-01T21:03:12.306Z,99717.17
2022-10-01T21:05:50.768Z,99716.52
2022-10-01T21:08:53.439Z,99721.90
2022-10-01T21:11:35.905Z,99720.52
2022-10-01T21:14:25.536Z,99726.52
2022-10-01T21:17:30.771Z,99729.09
2022-10-01T21:20:37.822Z,99728.50
2022-10-01T21:24:01.626Z,99730.06
2022-10-01T21:27:24.385Z,99732.05
2022-10-01T21:30:12.364Z,99733.16
2022-10-01T21:33:23.935Z,99737.11
2022-10-01T21:36:10.887Z,99735.99
2022-10-01T21:38:50.466Z,99740.77
2022-10-01T21:41:30.363Z,99740.29
2022-10-01T21:44:52.450Z,99743.80
2022-10-01T21:47:58.764Z,99744.52
2022-10-01T21:50:56.302Z,99749.77
2022-10-01T21:53:52.964Z,99745.95
2022-10-01T21:56:38.423Z,99751.63
2022-10-01T21:59:28.989Z,99753.98
2022-10-01T22:02:14.822Z,99750.73
2022-10-01T22:04:54.238Z,99759.45
2022-10-01T22:07:38.687Z,99758.80
2022-10-01T22:10:31.695Z,99765.44
2022-10-01T22:13:04.380Z,99768.60
2022-10-01T22:15:44.664Z,99766.36
2022-10-01T22:18:27.996Z,99769.73
2022-10-01T22:20:59.184Z,99772.02
2022-10-01T22:23:31.008Z,99774.08
2022-10-01T22:26:05.975Z,99776.47
2022-10-01T22:28:39.146Z,99778.04
2022-10-01T22:31:15.990Z,99782.48
2022-10-01T22:33:52.546Z,99784.39
2022-10-01T22:36:38.687Z,99788.96
2022-10-01T22:39:23.035Z,99793.61
2022-10-01T22:42:20.873Z,99790.48
2022-10-01T22:44:48.631Z,99802.46
2022-10-01T22:47:38.189Z,99806.23
2022-10-01T22:50:52.194Z,99810.35
2022-10-01T22:54:01.594Z,99810.20
2022-10-01T22:57:02.113Z,99812.05
2022-10-01T22:59:43.525Z,99813.67
2022-10-01T23:02:42.806Z,99815.63
2022-10-01T23:05:45.925Z,99822.70
2022-10-01T23:08:39.477Z,99822.23
2022-10-01T23:11:36.275Z,99826.04
2022-10-01T23:14:53.727Z,99823.85
2022-10-01T23:18:10.140Z,99828.91
2022-10-01T23:21:48.410Z,99830.32
2022-10-01T23:24:32.138Z,99837.70
2022-10-01T23:27:47.137Z,99837.23
2022-10-01T23:30:20.059Z,99847.41
2022-10-01T23:33:10.673Z,99855.27
2022-10-01T23:35:52.967Z,99854.03
2022-10-01T23:38:30.906Z,99858.98
2022-10-01T23:41:09.886Z,99859.10
2022-10-01T23:43:48.476Z,99863.02
2022-10-01T23:46:27.325Z,99859.92
2022-10-01T23:49:11.166Z,99861.09
2022-10-01T23:51:48.673Z,99861.74
2022-10-01T23:54:33.314Z,99866.08
2022-10-01T23:57:14.632Z,99875.09
